Time;durP1;ratioP1;P1;durP2;ratioP2;P2;SDS_P1;SDS_P2;PMS_P1;PMS_P2;Temp;Humidity;BMP_temperature;BMP_pressure;BME280_temperature;BME280_humidity;BME280_pressure;Samples;Min_cycle;Max_cycle;Signal;HPM_P1;HPM_P2
2020/12/31 00:02:21;;;;;;;5.30;3.47;;;3.60;99.90;;;;;;5046130;28;20526;-65
2020/12/31 00:04:46;;;;;;;5.63;3.45;;;3.60;99.90;;;;;;5045493;28;20588;-64
2020/12/31 00:07:12;;;;;;;5.50;3.15;;;3.60;99.90;;;;;;5046663;28;20548;-63
2020/12/31 00:09:37;;;;;;;7.10;3.58;;;3.60;99.90;;;;;;5043717;28;20025;-63
2020/12/31 00:12:04;;;;;;;7.18;3.35;;;3.60;99.90;;;;;;5047112;28;20055;-65
2020/12/31 00:14:30;;;;;;;6.55;3.50;;;3.60;99.90;;;;;;5043953;28;20736;-63
2020/12/31 00:16:55;;;;;;;7.22;4.50;;;3.60;99.90;;;;;;5048768;28;20041;-64
2020/12/31 00:19:21;;;;;;;7.53;3.85;;;3.60;99.90;;;;;;5043921;28;20536;-63
2020/12/31 00:21:46;;;;;;;5.75;3.20;;;3.60;99.90;;;;;;5045439;28;20175;-64
2020/12/31 00:24:12;;;;;;;7.03;3.65;;;3.60;99.90;;;;;;5046152;28;20374;-63
2020/12/31 00:26:37;;;;;;;6.50;3.60;;;3.60;99.90;;;;;;5044041;28;20517;-64
2020/12/31 00:29:03;;;;;;;5.53;3.28;;;3.60;99.90;;;;;;5047393;28;20489;-63
2020/12/31 00:31:28;;;;;;;5.68;3.28;;;3.60;99.90;;;;;;5041366;28;20045;-64
2020/12/31 00:33:54;;;;;;;6.88;3.15;;;3.60;99.90;;;;;;5043829;28;20128;-64
2020/12/31 00:36:20;;;;;;;5.63;2.78;;;3.60;99.90;;;;;;5043585;28;20037;-63
2020/12/31 00:38:45;;;;;;;5.95;3.00;;;3.60;99.90;;;;;;5044892;28;20037;-63
2020/12/31 00:41:11;;;;;;;5.78;3.15;;;3.60;99.90;;;;;;5044675;28;20037;-63
2020/12/31 00:43:36;;;;;;;6.38;3.45;;;3.60;99.90;;;;;;5044260;28;20035;-65
2020/12/31 00:46:02;;;;;;;7.03;4.15;;;3.60;99.90;;;;;;5047690;28;20021;-63
2020/12/31 00:48:27;;;;;;;9.90;3.90;;;3.60;99.90;;;;;;5043283;28;20505;-63
2020/12/31 00:50:53;;;;;;;7.97;4.32;;;3.70;99.90;;;;;;5044539;28;20025;-64
2020/12/31 00:53:18;;;;;;;9.77;4.40;;;3.70;99.90;;;;;;5044555;28;20096;-63
2020/12/31 00:55:44;;;;;;;10.73;3.83;;;3.70;99.90;;;;;;5045316;28;20043;-64
2020/12/31 00:58:10;;;;;;;9.77;4.43;;;3.70;99.90;;;;;;5044362;28;20056;-63
2020/12/31 01:00:35;;;;;;;8.57;4.18;;;3.60;99.90;;;;;;5044308;28;20037;-64
2020/12/31 01:03:02;;;;;;;9.88;4.22;;;3.60;99.90;;;;;;5048181;28;20482;-63
2020/12/31 01:05:28;;;;;;;7.57;3.50;;;3.70;99.90;;;;;;5048023;28;20087;-63
2020/12/31 01:07:53;;;;;;;9.15;4.03;;;3.70;99.90;;;;;;5048249;28;20022;-63
2020/12/31 01:10:19;;;;;;;6.57;3.47;;;3.60;99.90;;;;;;5048003;28;20087;-63
2020/12/31 01:12:45;;;;;;;4.53;2.28;;;3.70;99.90;;;;;;5046936;28;20047;-63
2020/12/31 01:15:11;;;;;;;4.40;1.80;;;3.60;99.90;;;;;;5046396;28;20033;-63
2020/12/31 01:17:37;;;;;;;4.72;2.13;;;3.50;99.90;;;;;;5046889;28;20025;-63
2020/12/31 01:20:04;;;;;;;3.17;1.50;;;3.50;99.90;;;;;;5048423;28;20033;-64
2020/12/31 01:22:29;;;;;;;3.95;1.00;;;3.40;99.90;;;;;;5047933;28;20509;-65
2020/12/31 01:24:55;;;;;;;3.65;1.30;;;3.40;99.90;;;;;;5046868;28;20025;-63
2020/12/31 01:27:20;;;;;;;3.10;1.25;;;3.20;99.90;;;;;;5047649;28;20025;-64
2020/12/31 01:29:46;;;;;;;7.53;1.50;;;3.20;99.90;;;;;;5049812;28;20029;-63
2020/12/31 01:32:11;;;;;;;3.75;1.75;;;3.20;99.90;;;;;;5051947;28;20041;-63
2020/12/31 01:34:37;;;;;;;3.40;1.58;;;3.20;99.90;;;;;;5050054;28;20029;-63
2020/12/31 01:37:03;;;;;;;7.90;2.00;;;3.20;99.90;;;;;;5051673;28;20048;-64
2020/12/31 01:39:29;;;;;;;4.57;1.33;;;3.20;99.90;;;;;;5049532;28;20029;-63
2020/12/31 01:41:54;;;;;;;3.67;1.65;;;3.20;99.90;;;;;;5051772;28;20454;-65
2020/12/31 01:44:20;;;;;;;5.97;2.28;;;3.10;99.90;;;;;;5050934;28;20032;-64
2020/12/31 01:46:47;;;;;;;3.67;1.20;;;3.20;99.90;;;;;;5051759;28;20025;-64
2020/12/31 01:49:16;;;;;;;5.65;2.13;;;3.20;99.90;;;;;;5051195;28;20090;-64
2020/12/31 01:51:45;;;;;;;4.30;1.30;;;3.20;99.90;;;;;;5051250;28;20060;-63
2020/12/31 01:54:14;;;;;;;3.90;1.70;;;3.20;99.90;;;;;;5051282;28;20041;-63
2020/12/31 01:56:42;;;;;;;3.15;1.75;;;3.20;99.90;;;;;;5050971;28;20037;-65
2020/12/31 01:59:07;;;;;;;5.32;1.90;;;3.20;99.90;;;;;;5051163;28;20453;-65
2020/12/31 02:01:33;;;;;;;4.60;2.13;;;3.20;99.90;;;;;;5050983;28;20106;-63
2020/12/31 02:03:59;;;;;;;6.22;1.95;;;3.20;99.90;;;;;;5050172;28;20060;-63
2020/12/31 02:06:27;;;;;;;6.20;1.85;;;3.20;99.90;;;;;;5050969;28;20025;-64
2020/12/31 02:08:52;;;;;;;4.28;1.83;;;3.30;99.90;;;;;;5051522;28;20124;-63
2020/12/31 02:11:20;;;;;;;3.38;1.77;;;3.30;99.90;;;;;;5051576;28;20125;-64
2020/12/31 02:13:46;;;;;;;4.70;1.70;;;3.30;99.90;;;;;;5050721;28;20037;-63
2020/12/31 02:16:13;;;;;;;5.30;2.17;;;3.30;99.90;;;;;;5051150;28;20032;-63
2020/12/31 02:18:50;;;;;;;5.07;2.25;;;3.30;99.90;;;;;;5048892;28;20047;-63
2020/12/31 02:21:31;;;;;;;6.95;2.13;;;3.30;99.90;;;;;;5041488;28;20029;-64
2020/12/31 02:23:58;;;;;;;4.07;2.05;;;3.30;99.90;;;;;;5044023;28;20568;-64
2020/12/31 02:26:27;;;;;;;4.28;1.80;;;3.30;99.90;;;;;;5049762;28;20647;-64
2020/12/31 02:28:54;;;;;;;4.90;2.00;;;3.30;99.90;;;;;;5050233;28;20067;-63
2020/12/31 02:31:20;;;;;;;4.13;1.38;;;3.30;99.90;;;;;;5051150;28;20029;-64
2020/12/31 02:33:47;;;;;;;4.35;1.70;;;3.30;99.90;;;;;;5042242;28;20057;-63
2020/12/31 02:36:14;;;;;;;3.60;2.03;;;3.30;99.90;;;;;;5050614;28;20041;-64
2020/12/31 02:38:40;;;;;;;8.13;1.60;;;3.30;99.90;;;;;;5050137;28;20832;-63
2020/12/31 02:41:07;;;;;;;4.00;2.25;;;3.30;99.90;;;;;;5050009;28;20128;-64
2020/12/31 02:43:34;;;;;;;4.72;1.92;;;3.30;99.90;;;;;;5050749;28;20061;-63
2020/12/31 02:46:00;;;;;;;4.70;2.20;;;3.30;99.90;;;;;;5050033;28;20056;-63
2020/12/31 02:48:26;;;;;;;10.07;2.45;;;3.20;99.90;;;;;;5049266;28;20066;-63
2020/12/31 02:50:51;;;;;;;6.85;1.92;;;3.30;99.90;;;;;;5049912;28;20040;-63
2020/12/31 02:53:17;;;;;;;5.55;2.47;;;3.30;99.90;;;;;;5050728;28;20506;-64
2020/12/31 02:55:42;;;;;;;6.68;2.35;;;3.30;99.90;;;;;;5049991;28;20043;-63
2020/12/31 02:58:08;;;;;;;4.72;2.30;;;3.30;99.90;;;;;;5050233;28;20056;-63
2020/12/31 03:00:34;;;;;;;6.90;2.80;;;3.30;99.90;;;;;;5049084;28;20060;-64
2020/12/31 03:02:59;;;;;;;6.97;3.00;;;3.40;99.90;;;;;;5049899;28;20033;-64
2020/12/31 03:05:25;;;;;;;9.10;3.80;;;3.40;99.90;;;;;;5048770;28;20033;-63
2020/12/31 03:07:50;;;;;;;8.13;4.40;;;3.40;99.90;;;;;;5049645;28;20137;-64
2020/12/31 03:10:16;;;;;;;10.55;4.40;;;3.40;99.90;;;;;;5050173;28;20041;-63
2020/12/31 03:12:41;;;;;;;9.82;4.95;;;3.40;99.90;;;;;;5050237;28;20033;-63
2020/12/31 03:15:09;;;;;;;9.77;4.90;;;3.40;99.90;;;;;;5049602;28;20075;-63
2020/12/31 03:17:35;;;;;;;11.68;5.32;;;3.50;99.90;;;;;;5049974;28;20560;-64
2020/12/31 03:20:01;;;;;;;15.52;6.63;;;3.50;99.90;;;;;;5049127;28;20062;-64
2020/12/31 03:22:26;;;;;;;12.65;6.93;;;3.50;99.90;;;;;;5049767;28;20029;-63
2020/12/31 03:24:52;;;;;;;11.25;6.38;;;3.60;99.90;;;;;;5047789;28;20029;-63
2020/12/31 03:27:17;;;;;;;13.70;6.63;;;3.60;99.90;;;;;;5049715;28;20079;-63
2020/12/31 03:29:43;;;;;;;13.40;6.78;;;3.60;99.90;;;;;;5049631;28;20079;-64
2020/12/31 03:32:08;;;;;;;10.68;5.80;;;3.60;99.90;;;;;;5049270;28;20104;-64
2020/12/31 03:34:34;;;;;;;12.82;5.63;;;3.60;99.90;;;;;;5048303;28;20536;-63
2020/12/31 03:36:59;;;;;;;10.20;5.22;;;3.60;99.90;;;;;;5047536;28;20049;-63
2020/12/31 03:39:25;;;;;;;13.23;5.88;;;3.60;99.90;;;;;;5049784;28;20036;-65
2020/12/31 03:41:50;;;;;;;12.85;6.30;;;3.60;99.90;;;;;;5047633;28;20047;-63
2020/12/31 03:44:16;;;;;;;15.35;6.68;;;3.50;99.90;;;;;;5049767;28;20067;-63
2020/12/31 03:46:41;;;;;;;13.10;6.18;;;3.50;99.90;;;;;;5041594;28;20481;-65
2020/12/31 03:49:07;;;;;;;11.68;6.13;;;3.50;99.90;;;;;;5047554;28;20102;-63
2020/12/31 03:51:32;;;;;;;13.50;7.18;;;3.60;99.90;;;;;;5049661;28;20021;-63
2020/12/31 03:53:57;;;;;;;12.93;6.88;;;3.60;99.90;;;;;;5048097;28;20037;-65
2020/12/31 03:56:23;;;;;;;11.95;6.55;;;3.60;99.90;;;;;;5047816;28;20048;-63
2020/12/31 03:58:48;;;;;;;12.88;6.57;;;3.60;99.90;;;;;;5049297;28;20061;-64
2020/12/31 04:01:14;;;;;;;13.52;5.53;;;3.60;99.90;;;;;;5049010;28;20039;-64
2020/12/31 04:03:39;;;;;;;10.70;5.82;;;3.50;99.90;;;;;;5049482;28;20035;-64
2020/12/31 04:06:05;;;;;;;10.90;5.97;;;3.50;99.90;;;;;;5048499;28;20037;-63
2020/12/31 04:08:31;;;;;;;11.52;5.63;;;3.50;99.90;;;;;;5049363;28;20033;-65
2020/12/31 04:10:56;;;;;;;9.98;5.50;;;3.50;99.90;;;;;;5048517;28;20039;-63
2020/12/31 04:13:22;;;;;;;14.32;5.47;;;3.40;99.90;;;;;;5047615;28;20040;-64
2020/12/31 04:15:47;;;;;;;9.25;5.32;;;3.40;99.90;;;;;;5047446;28;20036;-64
2020/12/31 04:18:13;;;;;;;10.43;5.68;;;3.40;99.90;;;;;;5074812;22;20064;-60
2020/12/31 04:20:38;;;;;;;11.35;5.15;;;3.40;99.90;;;;;;5053270;28;20037;-61
2020/12/31 04:23:04;;;;;;;10.43;5.57;;;3.40;99.90;;;;;;5057588;28;20036;-61
2020/12/31 04:25:29;;;;;;;13.27;5.45;;;3.30;99.90;;;;;;5058857;28;20037;-60
2020/12/31 04:27:55;;;;;;;9.00;5.45;;;3.30;99.90;;;;;;5058499;28;20429;-61
2020/12/31 04:30:20;;;;;;;9.50;5.35;;;3.30;99.90;;;;;;5057377;28;20029;-61
2020/12/31 04:32:46;;;;;;;11.35;5.38;;;3.30;99.90;;;;;;5059795;28;20032;-61
2020/12/31 04:35:11;;;;;;;12.35;5.55;;;3.30;99.90;;;;;;5055006;28;20040;-61
2020/12/31 04:37:37;;;;;;;11.15;5.65;;;3.30;99.90;;;;;;5060097;28;20481;-61
2020/12/31 04:40:02;;;;;;;11.82;5.75;;;3.30;99.90;;;;;;5056898;28;20029;-61
2020/12/31 04:42:37;;;;;;;14.35;5.82;;;3.30;99.90;;;;;;5057338;28;20071;-59
2020/12/31 04:45:04;;;;;;;16.17;6.50;;;3.20;99.90;;;;;;5056600;28;20167;-62
2020/12/31 04:47:41;;;;;;;11.45;6.07;;;3.20;99.90;;;;;;5058898;28;20556;-60
2020/12/31 04:50:09;;;;;;;14.75;7.15;;;3.20;99.90;;;;;;5056107;28;20033;-63
2020/12/31 04:52:35;;;;;;;13.27;6.53;;;3.20;99.90;;;;;;5055174;28;20071;-62
2020/12/31 04:55:01;;;;;;;14.63;6.85;;;3.20;99.90;;;;;;5057706;28;20106;-60
2020/12/31 04:57:27;;;;;;;13.88;6.07;;;3.20;99.90;;;;;;5057437;28;20029;-60
2020/12/31 04:59:53;;;;;;;11.95;6.20;;;3.20;99.90;;;;;;5056663;28;20386;-62
2020/12/31 05:02:18;;;;;;;11.48;6.43;;;3.20;99.90;;;;;;5058355;28;20097;-60
2020/12/31 05:04:44;;;;;;;12.80;6.35;;;3.20;99.90;;;;;;5058483;28;20079;-61
2020/12/31 05:07:10;;;;;;;15.07;6.25;;;3.20;99.90;;;;;;5061846;28;20048;-60
2020/12/31 05:09:36;;;;;;;11.27;6.47;;;3.20;99.90;;;;;;5060486;28;20037;-60
2020/12/31 05:12:01;;;;;;;12.70;5.82;;;3.20;99.90;;;;;;5063035;28;20043;-60
2020/12/31 05:14:28;;;;;;;14.82;6.18;;;3.30;99.90;;;;;;5059240;28;20029;-62
2020/12/31 05:16:54;;;;;;;14.52;6.28;;;3.30;99.90;;;;;;5061846;28;20039;-62
2020/12/31 05:19:24;;;;;;;15.75;6.90;;;3.30;99.90;;;;;;5060656;28;20045;-60
2020/12/31 05:22:18;;;;;;;16.35;6.88;;;3.40;99.90;;;;;;5062296;28;20029;-60
2020/12/31 05:24:45;;;;;;;13.48;6.57;;;3.40;99.90;;;;;;5058958;28;20134;-60
2020/12/31 05:27:29;;;;;;;17.38;7.32;;;3.40;99.90;;;;;;5063444;28;20028;-60
2020/12/31 05:29:55;;;;;;;14.18;7.03;;;3.50;99.90;;;;;;5061671;28;20124;-62
2020/12/31 05:32:21;;;;;;;15.20;7.28;;;3.50;99.90;;;;;;5061919;28;20454;-60
2020/12/31 05:34:47;;;;;;;11.52;6.53;;;3.50;99.90;;;;;;5063737;28;20684;-61
2020/12/31 05:37:14;;;;;;;15.60;7.05;;;3.50;99.90;;;;;;5060150;28;20041;-60
2020/12/31 05:40:07;;;;;;;16.20;8.10;;;3.50;99.90;;;;;;5062819;28;20043;-61
2020/12/31 05:42:34;;;;;;;13.85;6.85;;;3.50;99.90;;;;;;5060654;28;20086;-62
2020/12/31 05:45:08;;;;;;;16.00;7.80;;;3.50;99.90;;;;;;5060165;28;20044;-61
2020/12/31 05:47:35;;;;;;;15.48;7.68;;;3.50;99.90;;;;;;5062466;28;20468;-63
2020/12/31 05:50:13;;;;;;;15.80;7.88;;;3.50;99.90;;;;;;5059993;28;20047;-61
2020/12/31 05:52:39;;;;;;;16.75;7.95;;;3.40;99.90;;;;;;5059063;28;20035;-61
2020/12/31 05:55:06;;;;;;;16.73;7.97;;;3.50;99.90;;;;;;5063270;28;20124;-61
2020/12/31 05:57:42;;;;;;;14.32;7.40;;;3.50;99.90;;;;;;5059611;28;20432;-60
2020/12/31 06:00:10;;;;;;;19.60;8.95;;;3.50;99.90;;;;;;5059333;28;20489;-60
2020/12/31 06:02:48;;;;;;;18.27;7.45;;;3.40;99.90;;;;;;5059345;28;20049;-62
2020/12/31 06:05:15;;;;;;;16.73;7.35;;;3.40;99.90;;;;;;5059702;28;20115;-60
2020/12/31 06:07:46;;;;;;;16.33;7.03;;;3.30;99.90;;;;;;5062177;28;20024;-60
2020/12/31 06:10:16;;;;;;;15.77;8.15;;;3.30;99.90;;;;;;5057761;28;20067;-61
2020/12/31 06:12:48;;;;;;;18.33;8.98;;;3.30;99.90;;;;;;5062236;28;20024;-60
2020/12/31 06:15:35;;;;;;;14.68;7.72;;;3.30;99.90;;;;;;5059302;28;20044;-60
2020/12/31 06:18:02;;;;;;;21.83;8.57;;;3.20;99.90;;;;;;5058639;28;20021;-62
2020/12/31 06:20:29;;;;;;;16.08;8.02;;;3.20;99.90;;;;;;5058845;28;20060;-61
2020/12/31 06:23:13;;;;;;;15.77;8.02;;;3.20;99.90;;;;;;5061275;28;20116;-62
2020/12/31 06:25:42;;;;;;;21.08;7.38;;;3.20;99.90;;;;;;5059036;28;20045;-62
2020/12/31 06:28:16;;;;;;;19.10;8.38;;;3.30;99.90;;;;;;5062024;28;20039;-60
2020/12/31 06:30:50;;;;;;;13.52;7.00;;;3.20;99.90;;;;;;5059493;28;20025;-62
2020/12/31 06:33:32;;;;;;;16.95;7.97;;;3.30;99.90;;;;;;5060934;28;20037;-61
2020/12/31 06:36:02;;;;;;;19.75;8.25;;;3.20;99.90;;;;;;5061469;28;20033;-60
2020/12/31 06:38:35;;;;;;;16.70;8.38;;;3.20;99.90;;;;;;5057524;28;20497;-60
2020/12/31 06:41:01;;;;;;;16.90;7.28;;;3.30;99.90;;;;;;5061780;28;20039;-62
2020/12/31 06:43:32;;;;;;;16.23;7.93;;;3.30;99.90;;;;;;5059139;28;20056;-60
2020/12/31 06:45:58;;;;;;;19.02;7.85;;;3.30;99.90;;;;;;5061245;28;20041;-60
2020/12/31 06:48:26;;;;;;;15.85;7.88;;;3.30;99.90;;;;;;5059545;28;20047;-61
2020/12/31 06:51:11;;;;;;;15.93;7.28;;;3.40;99.90;;;;;;5060154;28;20036;-60
2020/12/31 06:53:45;;;;;;;16.80;7.88;;;3.40;99.90;;;;;;5058405;28;20512;-62
2020/12/31 06:56:11;;;;;;;14.80;6.95;;;3.40;99.90;;;;;;5060674;28;20037;-60
2020/12/31 06:58:38;;;;;;;14.10;7.05;;;3.40;99.90;;;;;;5058537;28;20405;-60
2020/12/31 07:01:40;;;;;;;17.88;7.03;;;3.40;99.90;;;;;;5061247;28;20044;-61
2020/12/31 07:04:05;;;;;;;14.43;7.30;;;3.40;99.90;;;;;;5021864;28;20518;-61
2020/12/31 07:06:32;;;;;;;15.98;7.78;;;3.40;99.90;;;;;;5058005;28;20037;-60
2020/12/31 07:09:03;;;;;;;18.42;8.05;;;3.30;99.90;;;;;;5060726;28;20029;-60
2020/12/31 07:11:38;;;;;;;18.60;7.65;;;3.30;99.90;;;;;;5058155;28;20029;-60
2020/12/31 07:14:22;;;;;;;15.10;7.45;;;3.30;99.90;;;;;;5057641;28;20123;-62
2020/12/31 07:17:05;;;;;;;21.73;7.97;;;3.30;99.90;;;;;;5060119;28;20116;-60
2020/12/31 07:19:42;;;;;;;19.85;8.35;;;3.30;99.90;;;;;;5057675;28;20044;-61
2020/12/31 07:22:10;;;;;;;15.45;7.55;;;3.20;99.90;;;;;;5058164;28;20473;-62
2020/12/31 07:24:54;;;;;;;15.93;8.30;;;3.20;99.90;;;;;;5059305;28;20135;-61
2020/12/31 07:27:27;;;;;;;21.17;8.98;;;3.20;99.90;;;;;;5059548;28;20049;-62
2020/12/31 07:30:09;;;;;;;23.83;8.57;;;3.10;99.90;;;;;;5058178;28;20036;-60
2020/12/31 07:33:02;;;;;;;16.27;8.30;;;3.10;99.90;;;;;;5057559;28;20071;-61
2020/12/31 07:35:32;;;;;;;20.05;8.52;;;3.00;99.90;;;;;;5060386;28;20044;-62
2020/12/31 07:38:20;;;;;;;22.77;9.32;;;3.10;99.90;;;;;;5060150;28;20060;-61
2020/12/31 07:40:50;;;;;;;19.42;8.65;;;3.10;99.90;;;;;;5059118;28;20401;-61
2020/12/31 07:43:23;;;;;;;22.35;9.35;;;3.10;99.90;;;;;;5059072;28;20111;-61
2020/12/31 07:45:50;;;;;;;17.75;8.98;;;3.10;99.90;;;;;;5059461;28;20044;-61
2020/12/31 07:48:17;;;;;;;19.48;8.63;;;3.10;99.90;;;;;;5059107;28;20386;-62
2020/12/31 07:50:43;;;;;;;18.27;8.18;;;3.20;99.90;;;;;;5061437;28;20029;-60
2020/12/31 07:53:12;;;;;;;18.98;8.85;;;3.20;99.90;;;;;;5059428;28;20760;-62
2020/12/31 07:55:47;;;;;;;27.30;8.32;;;3.30;99.90;;;;;;5062824;28;20119;-62
2020/12/31 07:58:14;;;;;;;20.77;8.32;;;3.30;99.90;;;;;;5068450;28;20029;-62
2020/12/31 08:00:40;;;;;;;19.85;9.27;;;3.30;99.90;;;;;;5064255;28;20060;-61
2020/12/31 08:03:09;;;;;;;20.33;8.30;;;3.30;99.90;;;;;;5066329;28;20060;-61
2020/12/31 08:05:35;;;;;;;15.98;8.25;;;3.30;99.90;;;;;;5065754;28;20078;-61
2020/12/31 08:08:00;;;;;;;16.58;7.82;;;3.30;99.90;;;;;;5059147;28;20111;-59
2020/12/31 08:10:26;;;;;;;17.80;8.40;;;3.30;99.90;;;;;;5065288;28;20043;-61
2020/12/31 08:13:01;;;;;;;18.40;8.23;;;3.40;99.90;;;;;;5064031;28;20024;-61
2020/12/31 08:15:27;;;;;;;20.88;8.45;;;3.40;99.90;;;;;;5060293;28;20040;-61
2020/12/31 08:17:57;;;;;;;17.58;8.07;;;3.50;99.90;;;;;;5063156;28;20366;-61
2020/12/31 08:20:34;;;;;;;18.27;7.93;;;3.50;99.90;;;;;;5065785;28;20067;-60
2020/12/31 08:23:02;;;;;;;17.48;7.47;;;3.60;99.90;;;;;;5060921;28;20040;-60
2020/12/31 08:25:35;;;;;;;20.10;7.82;;;3.60;99.90;;;;;;5065806;28;20028;-62
2020/12/31 08:28:06;;;;;;;16.95;8.10;;;3.60;99.90;;;;;;5064485;28;20071;-60
2020/12/31 08:30:34;;;;;;;20.20;8.57;;;3.60;99.90;;;;;;5063438;28;20107;-59
2020/12/31 08:33:00;;;;;;;18.90;7.85;;;3.60;99.90;;;;;;5057895;28;20102;-61
2020/12/31 08:35:46;;;;;;;23.80;9.48;;;3.60;99.90;;;;;;5063929;28;20021;-62
2020/12/31 08:38:20;;;;;;;21.95;7.85;;;3.70;99.90;;;;;;5062452;28;20099;-60
2020/12/31 08:40:58;;;;;;;21.48;8.48;;;3.70;99.90;;;;;;5064257;28;20020;-61
2020/12/31 08:43:33;;;;;;;19.60;9.00;;;3.70;99.90;;;;;;5062280;28;20051;-59
2020/12/31 08:45:59;;;;;;;17.85;8.30;;;3.70;99.90;;;;;;5062943;28;20081;-63
2020/12/31 08:48:29;;;;;;;20.08;9.07;;;3.70;99.90;;;;;;5064712;28;20428;-62
2020/12/31 08:51:14;;;;;;;19.98;8.85;;;3.80;99.90;;;;;;5060321;28;20059;-61
2020/12/31 08:53:54;;;;;;;20.88;8.65;;;3.80;99.90;;;;;;5061680;28;20036;-60
2020/12/31 08:56:21;;;;;;;22.02;9.63;;;3.80;99.90;;;;;;5061327;28;20108;-63
2020/12/31 08:58:47;;;;;;;18.80;8.77;;;3.80;99.90;;;;;;5064265;28;20050;-61
2020/12/31 09:01:27;;;;;;;22.25;9.50;;;3.80;99.90;;;;;;5061945;28;20127;-60
2020/12/31 09:04:06;;;;;;;22.50;8.77;;;3.80;99.90;;;;;;5063265;28;20489;-60
2020/12/31 09:06:31;;;;;;;23.55;8.52;;;3.90;99.90;;;;;;5059068;28;20037;-62
2020/12/31 09:08:57;;;;;;;21.48;8.82;;;3.90;99.90;;;;;;5063581;28;20029;-61
2020/12/31 09:11:28;;;;;;;21.85;10.05;;;3.90;99.90;;;;;;5060051;28;20031;-63
2020/12/31 09:13:54;;;;;;;19.75;9.32;;;3.80;99.90;;;;;;5062768;28;20511;-60
2020/12/31 09:16:20;;;;;;;18.80;9.32;;;3.90;99.90;;;;;;5062475;28;20782;-61
2020/12/31 09:18:56;;;;;;;21.10;8.45;;;3.90;99.90;;;;;;5065946;28;20029;-60
2020/12/31 09:21:30;;;;;;;19.65;8.18;;;3.90;99.90;;;;;;5059765;28;20033;-61
2020/12/31 09:23:56;;;;;;;21.70;8.63;;;3.90;99.90;;;;;;5059290;28;20219;-62
2020/12/31 09:26:28;;;;;;;23.00;8.60;;;3.90;99.90;;;;;;5059475;28;20056;-59
2020/12/31 09:28:54;;;;;;;19.60;8.75;;;3.90;99.90;;;;;;5061603;28;20120;-60
2020/12/31 09:31:23;;;;;;;18.88;8.63;;;3.90;99.90;;;;;;5060323;28;20646;-60
2020/12/31 09:33:50;;;;;;;18.20;9.07;;;3.90;99.90;;;;;;5062892;28;20056;-60
2020/12/31 09:36:23;;;;;;;17.27;8.68;;;4.00;99.90;;;;;;5056653;28;20068;-62
2020/12/31 09:38:49;;;;;;;20.10;9.15;;;4.00;99.90;;;;;;5055026;28;20025;-61
2020/12/31 09:41:15;;;;;;;24.42;8.65;;;3.90;99.90;;;;;;5061058;28;20041;-61
2020/12/31 09:43:40;;;;;;;25.67;10.57;;;4.00;99.90;;;;;;5056964;28;20124;-61
2020/12/31 09:46:06;;;;;;;21.67;9.27;;;4.00;99.90;;;;;;5057611;28;20044;-60
2020/12/31 09:48:31;;;;;;;23.80;10.32;;;4.00;99.90;;;;;;5058612;28;20039;-60
2020/12/31 09:50:57;;;;;;;22.33;9.77;;;4.10;99.90;;;;;;5056366;28;20041;-60
2020/12/31 09:53:22;;;;;;;18.02;8.52;;;4.00;99.90;;;;;;5063128;28;20492;-61
2020/12/31 09:55:48;;;;;;;25.33;9.55;;;4.00;99.90;;;;;;5059407;28;20036;-62
2020/12/31 09:58:13;;;;;;;25.00;10.00;;;4.00;99.90;;;;;;5061994;28;20036;-60
2020/12/31 10:00:39;;;;;;;25.60;10.15;;;4.00;99.90;;;;;;5060593;28;20025;-62
2020/12/31 10:03:04;;;;;;;21.40;10.20;;;4.00;99.90;;;;;;5060932;28;20366;-60
2020/12/31 10:05:30;;;;;;;27.95;9.15;;;4.00;99.90;;;;;;5061892;28;20068;-60
2020/12/31 10:07:55;;;;;;;22.67;9.45;;;4.00;99.90;;;;;;5059225;28;20154;-61
2020/12/31 10:10:21;;;;;;;27.60;9.60;;;4.00;99.90;;;;;;5062649;28;20408;-61
2020/12/31 10:12:46;;;;;;;24.38;10.15;;;4.10;99.90;;;;;;5058506;28;20029;-61
2020/12/31 10:15:12;;;;;;;22.15;9.40;;;4.00;99.90;;;;;;5059989;28;20028;-60
2020/12/31 10:17:38;;;;;;;24.80;10.55;;;4.10;99.90;;;;;;5061168;28;20033;-60
2020/12/31 10:20:05;;;;;;;24.63;9.55;;;4.10;99.90;;;;;;5076937;22;20055;-63
2020/12/31 10:22:31;;;;;;;28.95;10.07;;;4.10;99.90;;;;;;5068594;28;20112;-64
2020/12/31 10:24:56;;;;;;;20.48;8.82;;;4.10;99.90;;;;;;5070663;28;20524;-64
2020/12/31 10:27:22;;;;;;;24.48;9.63;;;4.10;99.90;;;;;;5070955;28;20020;-64
2020/12/31 10:29:48;;;;;;;25.38;10.07;;;4.20;99.90;;;;;;5060012;28;20040;-64
2020/12/31 10:32:14;;;;;;;23.25;10.32;;;4.20;99.90;;;;;;5049695;28;20048;-64
2020/12/31 10:34:39;;;;;;;25.38;10.20;;;4.30;99.90;;;;;;5050040;28;20037;-63
2020/12/31 10:37:05;;;;;;;22.75;10.65;;;4.30;99.90;;;;;;5040720;28;20048;-64
2020/12/31 10:39:30;;;;;;;25.73;11.23;;;4.30;99.90;;;;;;5050848;28;20040;-64
2020/12/31 10:41:56;;;;;;;24.48;10.48;;;4.40;99.90;;;;;;5049262;28;20033;-63
2020/12/31 10:44:21;;;;;;;24.02;10.13;;;4.30;99.90;;;;;;5050818;28;20493;-64
2020/12/31 10:46:47;;;;;;;25.27;10.82;;;4.40;99.90;;;;;;5042374;28;20068;-66
2020/12/31 10:49:14;;;;;;;24.38;10.85;;;4.40;99.90;;;;;;5050620;28;20067;-64
2020/12/31 10:51:43;;;;;;;25.85;11.95;;;4.50;99.90;;;;;;5049436;28;20075;-63
2020/12/31 10:54:09;;;;;;;28.80;10.65;;;4.50;99.90;;;;;;5049253;28;20049;-63
2020/12/31 10:56:35;;;;;;;26.45;10.75;;;4.40;99.90;;;;;;5049135;28;20044;-64
2020/12/31 10:59:01;;;;;;;28.20;11.57;;;4.50;99.90;;;;;;5050394;28;20072;-64
2020/12/31 11:01:27;;;;;;;27.27;11.40;;;4.50;99.90;;;;;;5048867;28;20053;-63
2020/12/31 11:03:52;;;;;;;22.85;9.82;;;4.60;99.90;;;;;;5048637;28;20112;-62
2020/12/31 11:06:26;;;;;;;80.80;38.17;;;4.70;99.90;;;;;;5050293;28;20033;-63
2020/12/31 11:08:55;;;;;;;50.53;26.13;;;4.80;99.90;;;;;;5043367;28;20075;-68
2020/12/31 11:11:30;;;;;;;44.20;22.63;;;4.80;99.90;;;;;;5050580;28;20044;-62
2020/12/31 11:13:56;;;;;;;30.45;14.95;;;4.80;99.90;;;;;;5049795;28;20029;-63
2020/12/31 11:16:21;;;;;;;25.90;11.43;;;4.80;99.90;;;;;;5050604;28;20045;-64
2020/12/31 11:18:47;;;;;;;34.30;14.13;;;4.80;99.90;;;;;;5050379;28;20021;-63
2020/12/31 11:21:14;;;;;;;34.83;15.48;;;4.90;99.90;;;;;;5050078;28;20868;-64
2020/12/31 11:23:40;;;;;;;22.77;9.88;;;5.00;99.90;;;;;;5050687;28;20033;-63
2020/12/31 11:26:14;;;;;;;25.10;11.05;;;5.00;99.90;;;;;;5049919;28;20033;-64
2020/12/31 11:28:39;;;;;;;19.70;9.63;;;4.90;99.90;;;;;;5035786;28;20097;-64
2020/12/31 11:31:11;;;;;;;22.15;10.15;;;5.00;99.90;;;;;;5036328;28;20033;-64
2020/12/31 11:33:46;;;;;;;24.67;10.73;;;5.00;99.90;;;;;;5036650;28;20522;-64
2020/12/31 11:36:12;;;;;;;29.48;13.40;;;5.10;99.90;;;;;;5032477;28;20124;-63
2020/12/31 11:38:39;;;;;;;23.75;11.32;;;5.10;99.90;;;;;;5046087;28;20034;-63
2020/12/31 11:41:08;;;;;;;23.60;10.52;;;5.10;99.90;;;;;;5043715;28;20029;-64
2020/12/31 11:43:35;;;;;;;23.15;9.73;;;5.10;99.90;;;;;;5044259;28;20104;-64
2020/12/31 11:46:01;;;;;;;44.92;16.98;;;5.10;99.90;;;;;;5039807;28;20049;-64
2020/12/31 11:48:27;;;;;;;96.85;29.52;;;5.30;99.90;;;;;;5047462;28;20554;-64
2020/12/31 11:50:53;;;;;;;27.15;12.18;;;5.30;99.90;;;;;;5045994;28;20034;-65
2020/12/31 11:53:21;;;;;;;37.42;14.15;;;5.40;99.90;;;;;;5044477;28;20040;-64
2020/12/31 11:55:49;;;;;;;28.63;12.48;;;5.40;99.90;;;;;;5044103;28;21988;-64
2020/12/31 11:58:15;;;;;;;23.60;12.27;;;5.40;99.90;;;;;;5037749;28;20743;-64
2020/12/31 12:00:42;;;;;;;22.20;10.10;;;5.50;99.90;;;;;;5046195;28;20033;-64
2020/12/31 12:03:08;;;;;;;25.05;11.18;;;5.60;99.90;;;;;;5045491;28;20044;-64
2020/12/31 12:05:33;;;;;;;24.02;10.43;;;5.50;99.90;;;;;;5042482;28;20489;-63
2020/12/31 12:07:59;;;;;;;24.63;10.18;;;5.50;99.90;;;;;;5029242;28;20035;-65
2020/12/31 12:10:25;;;;;;;32.03;13.73;;;5.40;99.90;;;;;;5030064;28;20091;-64
2020/12/31 12:12:51;;;;;;;24.63;10.88;;;5.40;99.90;;;;;;5046065;28;20035;-65
2020/12/31 12:15:16;;;;;;;20.15;9.52;;;5.40;99.90;;;;;;5044514;28;20024;-64
2020/12/31 12:17:42;;;;;;;29.65;12.32;;;5.50;99.90;;;;;;5038495;28;20779;-65
2020/12/31 12:20:10;;;;;;;22.88;10.18;;;5.40;99.90;;;;;;5043721;28;20341;-65
2020/12/31 12:22:36;;;;;;;25.02;9.80;;;5.30;99.90;;;;;;5045437;28;20083;-64
2020/12/31 12:25:02;;;;;;;23.90;9.60;;;5.30;99.90;;;;;;5044025;28;20037;-64
2020/12/31 12:27:28;;;;;;;21.13;9.20;;;5.20;99.90;;;;;;5047912;28;20056;-64
2020/12/31 12:29:53;;;;;;;24.92;9.38;;;5.20;99.90;;;;;;5043644;28;20052;-64
2020/12/31 12:32:19;;;;;;;22.30;9.40;;;5.20;99.90;;;;;;5047902;28;20124;-63
2020/12/31 12:34:44;;;;;;;25.08;10.13;;;5.20;99.90;;;;;;5047425;28;20045;-64
2020/12/31 12:37:10;;;;;;;37.25;14.13;;;5.20;99.90;;;;;;5046725;28;20044;-64
2020/12/31 12:39:36;;;;;;;22.55;9.52;;;5.20;99.90;;;;;;5047100;28;20041;-64
2020/12/31 12:42:01;;;;;;;21.45;10.10;;;5.20;99.90;;;;;;5047067;28;20041;-64
2020/12/31 12:44:27;;;;;;;43.85;18.42;;;5.30;99.90;;;;;;5047208;28;20116;-64
2020/12/31 12:46:52;;;;;;;33.90;17.05;;;5.30;99.90;;;;;;5048860;28;20029;-64
2020/12/31 12:49:18;;;;;;;27.17;12.98;;;5.30;99.90;;;;;;5046737;28;20188;-63
2020/12/31 12:51:43;;;;;;;24.92;10.57;;;5.30;99.90;;;;;;5048960;28;20032;-64
2020/12/31 12:54:09;;;;;;;21.92;9.05;;;5.30;99.90;;;;;;5048818;28;20040;-64